createdAt,value
2022-10-22T00:00:02.495Z,12.84
2022-10-22T00:01:02.568Z,12.81
2022-10-22T00:02:02.606Z,12.78
2022-10-22T00:03:02.701Z,12.76
2022-10-22T00:04:02.603Z,12.75
2022-10-22T00:05:02.374Z,12.75
2022-10-22T00:06:02.453Z,12.75
2022-10-22T00:07:02.299Z,12.75
2022-10-22T00:08:02.286Z,12.76
2022-10-22T00:09:02.340Z,12.73
2022-10-22T00:10:02.285Z,12.70
2022-10-22T00:11:02.256Z,12.69
2022-10-22T00:12:02.235Z,12.70
2022-10-22T00:13:02.210Z,12.69
2022-10-22T00:14:02.189Z,12.69
2022-10-22T00:15:02.188Z,12.69
2022-10-22T00:16:02.190Z,12.70
2022-10-22T00:17:02.141Z,12.72
2022-10-22T00:18:02.140Z,12.73
2022-10-22T00:19:02.131Z,12.75
2022-10-22T00:20:02.139Z,12.75
2022-10-22T00:21:02.107Z,12.80
2022-10-22T00:22:02.093Z,12.81
2022-10-22T00:23:02.108Z,12.83
2022-10-22T00:24:02.051Z,12.81
2022-10-22T00:25:02.109Z,12.84
2022-10-22T00:26:02.070Z,12.86
2022-10-22T00:27:02.019Z,12.84
2022-10-22T00:28:02.001Z,12.87
2022-10-22T00:29:01.999Z,12.87
2022-10-22T00:30:01.987Z,12.88
2022-10-22T00:31:01.980Z,12.90
2022-10-22T00:32:01.963Z,12.90
2022-10-22T00:33:01.979Z,12.90
2022-10-22T00:34:01.921Z,12.88
2022-10-22T00:35:01.913Z,12.90
2022-10-22T00:36:01.918Z,12.90
2022-10-22T00:37:01.889Z,12.91
2022-10-22T00:38:01.871Z,12.90
2022-10-22T00:39:01.861Z,12.90
2022-10-22T00:40:01.852Z,12.90
2022-10-22T00:42:01.847Z,12.87
2022-10-22T00:43:01.811Z,12.86
2022-10-22T00:44:01.784Z,12.87
2022-10-22T00:45:01.781Z,12.87
2022-10-22T00:46:01.770Z,12.86
2022-10-22T00:47:01.770Z,12.86
2022-10-22T00:48:01.734Z,12.86
2022-10-22T00:49:01.720Z,12.84
2022-10-22T00:50:01.705Z,12.84
2022-10-22T00:51:01.700Z,12.84
2022-10-22T00:52:01.692Z,12.84
2022-10-22T00:53:01.681Z,12.87
2022-10-22T00:54:01.652Z,12.87
2022-10-22T00:55:01.653Z,12.88
2022-10-22T00:56:01.629Z,12.87
2022-10-22T00:57:01.640Z,12.88
2022-10-22T00:58:01.584Z,12.88
2022-10-22T00:59:01.597Z,12.90
2022-10-22T01:00:01.572Z,12.91
2022-10-22T01:01:01.630Z,12.88
2022-10-22T01:02:01.565Z,12.88
2022-10-22T01:03:01.541Z,12.90
2022-10-22T01:04:01.530Z,12.91
2022-10-22T01:05:01.515Z,12.93
2022-10-22T01:06:01.498Z,12.94
2022-10-22T01:07:01.497Z,12.94
2022-10-22T01:08:01.514Z,12.93
2022-10-22T01:09:01.570Z,12.93
2022-10-22T01:10:01.451Z,12.93
2022-10-22T01:11:01.452Z,12.94
2022-10-22T01:12:01.413Z,12.93
2022-10-22T01:13:01.454Z,12.94
2022-10-22T01:14:01.402Z,12.94
2022-10-22T01:15:01.363Z,12.94
2022-10-22T01:16:01.391Z,12.98
2022-10-22T01:17:01.351Z,12.95
2022-10-22T01:18:01.335Z,13.01
2022-10-22T01:19:01.330Z,13.02
2022-10-22T01:20:01.313Z,13.03
2022-10-22T01:21:01.310Z,13.05
2022-10-22T01:22:01.300Z,13.05
2022-10-22T01:23:01.280Z,13.06
2022-10-22T01:24:01.265Z,13.03
2022-10-22T01:25:01.260Z,13.02
2022-10-22T01:26:01.212Z,13.03
2022-10-22T01:27:01.236Z,13.02
2022-10-22T01:28:01.209Z,13.02
2022-10-22T01:29:01.180Z,13.03
2022-10-22T01:30:01.174Z,13.05
2022-10-22T01:31:01.164Z,13.05
2022-10-22T01:32:01.169Z,13.06
2022-10-22T01:33:01.143Z,13.06
2022-10-22T01:34:01.127Z,13.11
2022-10-22T01:35:01.101Z,13.12
2022-10-22T01:36:01.093Z,13.16
2022-10-22T01:37:01.096Z,13.16
2022-10-22T01:38:01.072Z,13.17
2022-10-22T01:39:01.036Z,13.19
2022-10-22T01:40:01.042Z,13.17
2022-10-22T01:41:01.022Z,13.19
2022-10-22T01:42:01.042Z,13.19
2022-10-22T01:43:01.005Z,13.20
2022-10-22T01:44:00.983Z,13.20
2022-10-22T01:45:00.974Z,13.19
2022-10-22T01:46:01.016Z,13.19
2022-10-22T01:47:00.973Z,13.19
2022-10-22T01:48:00.936Z,13.16
2022-10-22T01:49:00.924Z,13.13
2022-10-22T01:50:00.903Z,13.12
2022-10-22T01:51:00.893Z,13.09
2022-10-22T01:52:00.893Z,13.05
2022-10-22T01:53:00.861Z,13.02
2022-10-22T01:54:00.854Z,13.02
2022-10-22T01:55:00.834Z,13.01
2022-10-22T01:56:00.821Z,13.01
2022-10-22T01:57:00.821Z,13.01
2022-10-22T01:58:00.803Z,13.03
2022-10-22T01:59:00.784Z,13.05
2022-10-22T02:00:00.778Z,13.05
2022-10-22T02:01:00.852Z,13.03
2022-10-22T02:02:00.751Z,13.03
2022-10-22T02:03:07.900Z,12.99
2022-10-22T02:04:00.719Z,13.03
2022-10-22T02:05:00.698Z,13.02
2022-10-22T02:06:00.710Z,13.02
2022-10-22T02:07:00.690Z,13.02
2022-10-22T02:08:00.678Z,13.02
2022-10-22T02:09:00.697Z,13.01
2022-10-22T02:10:00.643Z,12.99
2022-10-22T02:11:00.650Z,12.99
2022-10-22T02:12:00.627Z,12.99
2022-10-22T02:13:00.590Z,13.01
2022-10-22T02:14:00.581Z,13.01
2022-10-22T02:15:00.571Z,13.02
2022-10-22T02:16:00.570Z,13.01
2022-10-22T02:17:00.561Z,13.01
2022-10-22T02:18:00.537Z,13.01
2022-10-22T02:19:00.520Z,13.03
2022-10-22T02:20:00.501Z,13.01
2022-10-22T02:21:00.544Z,13.02
2022-10-22T02:22:00.499Z,13.01
2022-10-22T02:23:00.460Z,12.98
2022-10-22T02:24:00.468Z,13.01
2022-10-22T02:25:00.440Z,13.01
2022-10-22T02:26:00.421Z,13.02
2022-10-22T02:27:00.439Z,13.02
2022-10-22T02:28:00.400Z,13.03
2022-10-22T02:29:00.373Z,13.03
2022-10-22T02:30:00.372Z,13.03
2022-10-22T02:31:00.367Z,12.99
2022-10-22T02:32:00.360Z,12.99
2022-10-22T02:33:00.355Z,12.99
2022-10-22T02:34:00.320Z,13.01
2022-10-22T02:35:00.300Z,13.03
2022-10-22T02:36:00.289Z,13.06
2022-10-22T02:37:00.302Z,13.11
2022-10-22T02:38:00.271Z,13.13
2022-10-22T02:39:00.242Z,13.17
2022-10-22T02:40:00.249Z,13.19
2022-10-22T02:41:00.219Z,13.19
2022-10-22T02:42:00.231Z,13.23
2022-10-22T02:43:00.193Z,13.23
2022-10-22T02:44:00.192Z,13.26
2022-10-22T02:45:00.164Z,13.28
2022-10-22T02:46:00.172Z,13.28
2022-10-22T02:47:00.152Z,13.30
2022-10-22T02:48:00.131Z,13.30
2022-10-22T02:49:00.115Z,13.28
2022-10-22T02:50:00.112Z,13.28
2022-10-22T02:51:00.084Z,13.26
2022-10-22T02:52:00.092Z,13.27
2022-10-22T02:53:00.051Z,13.27
2022-10-22T02:54:00.053Z,13.28
2022-10-22T02:55:00.031Z,13.28
2022-10-22T02:56:00.031Z,13.31
2022-10-22T02:57:00.022Z,13.33
2022-10-22T02:57:59.993Z,13.36
2022-10-22T02:58:59.973Z,13.37
2022-10-22T02:59:59.969Z,13.37
2022-10-22T03:01:00.008Z,13.39
2022-10-22T03:01:59.952Z,13.40
2022-10-22T03:02:59.923Z,13.42
2022-10-22T03:03:59.921Z,13.42
2022-10-22T03:04:59.902Z,13.45
2022-10-22T03:05:59.883Z,13.46
2022-10-22T03:06:59.893Z,13.46
2022-10-22T03:07:59.862Z,13.46
2022-10-22T03:08:59.900Z,13.46
2022-10-22T03:09:59.844Z,13.49
2022-10-22T03:10:59.817Z,13.49
2022-10-22T03:11:59.852Z,13.50
2022-10-22T03:12:59.793Z,13.52
2022-10-22T03:13:59.781Z,13.52
2022-10-22T03:14:59.784Z,13.52
2022-10-22T03:15:59.753Z,13.55
2022-10-22T03:16:59.753Z,13.55
2022-10-22T03:17:59.733Z,13.57
2022-10-22T03:18:59.824Z,13.58
2022-10-22T03:19:59.704Z,13.61
2022-10-22T03:20:59.684Z,13.61
2022-10-22T03:21:59.688Z,13.62
2022-10-22T03:22:59.653Z,13.62
2022-10-22T03:23:59.644Z,13.64
2022-10-22T03:24:59.633Z,13.67
2022-10-22T03:26:59.623Z,13.64
2022-10-22T03:27:59.601Z,13.65
2022-10-22T03:28:59.574Z,13.64
2022-10-22T03:29:59.564Z,13.65
2022-10-22T03:30:59.545Z,13.65
2022-10-22T03:31:59.564Z,13.64
2022-10-22T03:32:59.534Z,13.65
2022-10-22T03:33:59.513Z,13.65
2022-10-22T03:35:59.484Z,13.64
2022-10-22T03:36:59.485Z,13.64
2022-10-22T03:37:59.618Z,13.64
2022-10-22T03:38:59.477Z,13.65
2022-10-22T03:39:59.443Z,13.64
2022-10-22T03:40:59.414Z,13.64
2022-10-22T03:41:59.432Z,13.64
2022-10-22T03:42:59.385Z,13.64
2022-10-22T03:43:59.375Z,13.64
2022-10-22T03:44:59.376Z,13.64
2022-10-22T03:45:59.355Z,13.64
2022-10-22T03:47:02.492Z,13.65
2022-10-22T03:47:59.335Z,13.65
2022-10-22T03:48:59.305Z,13.65
2022-10-22T03:49:59.313Z,13.65
2022-10-22T03:50:59.285Z,13.67
2022-10-22T03:51:59.286Z,13.65
2022-10-22T03:52:59.264Z,13.67
2022-10-22T03:53:59.268Z,13.67
2022-10-22T03:54:59.236Z,13.67
2022-10-22T03:55:59.232Z,13.67
2022-10-22T03:56:59.247Z,13.67
2022-10-22T03:57:59.198Z,13.67
2022-10-22T03:58:59.176Z,13.67
2022-10-22T03:59:59.167Z,13.64
2022-10-22T04:00:59.161Z,13.65
2022-10-22T04:01:59.136Z,13.67
2022-10-22T04:02:59.126Z,13.67
2022-10-22T04:03:59.137Z,13.67
2022-10-22T04:04:59.161Z,13.68
2022-10-22T04:05:59.092Z,13.68
2022-10-22T04:06:59.097Z,13.70
2022-10-22T04:07:59.058Z,13.70
2022-10-22T04:08:59.127Z,13.68
2022-10-22T04:09:59.042Z,13.70
2022-10-22T04:10:59.015Z,13.70
2022-10-22T04:11:59.007Z,13.71
2022-10-22T04:12:59.007Z,13.73
2022-10-22T04:13:58.978Z,13.71
2022-10-22T04:14:58.967Z,13.73
2022-10-22T04:15:58.957Z,13.71
2022-10-22T04:16:58.937Z,13.71
2022-10-22T04:17:58.937Z,13.71
2022-10-22T04:18:58.907Z,13.71
2022-10-22T04:19:58.911Z,13.75
2022-10-22T04:20:58.888Z,13.73
2022-10-22T04:21:58.869Z,13.75
2022-10-22T04:22:58.875Z,13.75
2022-10-22T04:23:58.847Z,13.75
2022-10-22T04:24:58.828Z,13.75
2022-10-22T04:25:58.818Z,13.75
2022-10-22T04:26:58.799Z,13.76
2022-10-22T04:27:58.807Z,13.76
2022-10-22T04:28:58.785Z,13.78
2022-10-22T04:29:58.779Z,13.78
2022-10-22T04:30:58.758Z,13.78
2022-10-22T04:31:58.745Z,13.76
2022-10-22T04:32:58.757Z,13.78
2022-10-22T04:33:58.737Z,13.76
2022-10-22T04:34:58.697Z,13.78
2022-10-22T04:35:58.705Z,13.79
2022-10-22T04:36:58.669Z,13.78
2022-10-22T04:37:58.669Z,13.79
2022-10-22T04:38:58.649Z,13.79
2022-10-22T04:39:58.656Z,13.79
2022-10-22T04:40:58.638Z,13.79
2022-10-22T04:41:58.607Z,13.79
2022-10-22T04:42:58.649Z,13.79
2022-10-22T04:43:58.598Z,13.78
2022-10-22T04:44:58.593Z,13.76
2022-10-22T04:45:58.551Z,13.76
2022-10-22T04:46:58.539Z,13.78
2022-10-22T04:47:58.560Z,13.75
2022-10-22T04:48:58.519Z,13.75
2022-10-22T04:49:58.497Z,13.73
2022-10-22T04:50:58.489Z,13.71
2022-10-22T04:51:58.470Z,13.71
2022-10-22T04:52:58.524Z,13.70
2022-10-22T04:53:58.452Z,13.68
2022-10-22T04:54:58.448Z,13.67
2022-10-22T04:55:58.428Z,13.67
2022-10-22T04:56:58.409Z,13.65
2022-10-22T04:57:58.409Z,13.64
2022-10-22T04:58:58.390Z,13.65
2022-10-22T04:59:58.375Z,13.64
2022-10-22T05:00:58.433Z,13.65
2022-10-22T05:01:58.342Z,13.64
2022-10-22T05:02:58.363Z,13.64
2022-10-22T05:03:58.305Z,13.64
2022-10-22T05:04:58.321Z,13.62
2022-10-22T05:05:58.304Z,13.62
2022-10-22T05:06:58.284Z,13.62
2022-10-22T05:07:58.271Z,13.61
2022-10-22T05:08:58.330Z,13.62
2022-10-22T05:09:58.220Z,13.60
2022-10-22T05:10:58.221Z,13.61
2022-10-22T05:11:58.222Z,13.60
2022-10-22T05:12:58.212Z,13.60
2022-10-22T05:13:58.180Z,13.62
2022-10-22T05:14:58.182Z,13.60
2022-10-22T05:15:58.151Z,13.61
2022-10-22T05:16:58.141Z,13.61
2022-10-22T05:17:58.164Z,13.60
2022-10-22T05:18:58.140Z,13.60
2022-10-22T05:19:58.100Z,13.58
2022-10-22T05:20:58.092Z,13.58
2022-10-22T05:21:58.080Z,13.57
2022-10-22T05:22:58.082Z,13.58
2022-10-22T05:23:58.033Z,13.57
2022-10-22T05:24:58.043Z,13.57
2022-10-22T05:25:58.003Z,13.57
2022-10-22T05:26:58.015Z,13.57
2022-10-22T05:28:00.237Z,13.57
2022-10-22T05:28:57.983Z,13.58
2022-10-22T05:29:57.973Z,13.58
2022-10-22T05:30:57.962Z,13.58
2022-10-22T05:31:57.933Z,13.60
2022-10-22T05:32:57.952Z,13.58
2022-10-22T05:33:57.902Z,13.60
2022-10-22T05:34:57.902Z,13.60
2022-10-22T05:35:57.883Z,13.58
2022-10-22T05:36:57.880Z,13.58
2022-10-22T05:37:57.885Z,13.58
2022-10-22T05:38:57.870Z,13.60
2022-10-22T05:40:06.781Z,13.58
2022-10-22T05:40:58.844Z,13.60
2022-10-22T05:41:57.792Z,13.58
2022-10-22T05:42:57.803Z,13.58
2022-10-22T05:43:57.851Z,13.58
2022-10-22T05:44:57.776Z,13.58
2022-10-22T05:45:57.752Z,13.57
2022-10-22T05:46:57.743Z,13.58
2022-10-22T05:47:57.721Z,13.57
2022-10-22T05:48:57.732Z,13.57
2022-10-22T05:49:57.694Z,13.58
2022-10-22T05:50:57.696Z,13.57
2022-10-22T05:51:57.664Z,13.57
2022-10-22T05:52:57.663Z,13.58
2022-10-22T05:53:57.657Z,13.58
2022-10-22T05:54:57.631Z,13.58
2022-10-22T05:55:57.614Z,13.57
2022-10-22T05:56:57.636Z,13.54
2022-10-22T05:57:57.585Z,13.55
2022-10-22T05:58:57.663Z,13.54
2022-10-22T05:59:57.573Z,13.50
2022-10-22T06:00:57.572Z,13.52
2022-10-22T06:01:57.576Z,13.47
2022-10-22T06:02:57.554Z,13.46
2022-10-22T06:03:57.505Z,13.43
2022-10-22T06:04:57.505Z,13.42
2022-10-22T06:05:57.493Z,13.39
2022-10-22T06:06:57.474Z,13.37
2022-10-22T06:07:57.466Z,13.37
2022-10-22T06:08:57.541Z,13.33
2022-10-22T06:09:57.436Z,13.33
2022-10-22T06:10:57.425Z,13.31
2022-10-22T06:11:57.413Z,13.33
2022-10-22T06:12:57.394Z,13.33
2022-10-22T06:13:57.393Z,13.33
2022-10-22T06:14:57.376Z,13.33
2022-10-22T06:15:57.346Z,13.31
2022-10-22T06:16:57.345Z,13.33
2022-10-22T06:17:57.336Z,13.36
2022-10-22T06:18:57.326Z,13.36
2022-10-22T06:19:57.348Z,13.36
2022-10-22T06:20:57.295Z,13.37
2022-10-22T06:21:57.266Z,13.37
2022-10-22T06:22:57.275Z,13.33
2022-10-22T06:23:57.246Z,13.31
2022-10-22T06:24:57.236Z,13.30
2022-10-22T06:25:57.224Z,13.30
2022-10-22T06:26:57.214Z,13.31
2022-10-22T06:27:57.207Z,13.30
2022-10-22T06:28:57.180Z,13.31
2022-10-22T06:29:57.167Z,13.31
2022-10-22T06:30:57.186Z,13.30
2022-10-22T06:31:57.142Z,13.33
2022-10-22T06:32:57.138Z,13.36
2022-10-22T06:33:57.134Z,13.33
2022-10-22T06:34:57.102Z,13.36
2022-10-22T06:35:57.088Z,13.37
2022-10-22T06:36:57.067Z,13.37
2022-10-22T06:37:57.057Z,13.40
2022-10-22T06:38:57.085Z,13.42
2022-10-22T06:39:57.035Z,13.43
2022-10-22T06:40:57.017Z,13.45
2022-10-22T06:41:56.997Z,13.46
2022-10-22T06:42:56.987Z,13.46
2022-10-22T06:43:56.989Z,13.47
2022-10-22T06:44:57.005Z,13.49
2022-10-22T06:45:56.956Z,13.50
2022-10-22T06:46:56.938Z,13.52
2022-10-22T06:47:56.916Z,13.52
2022-10-22T06:48:56.927Z,13.54
2022-10-22T06:49:56.897Z,13.54
2022-10-22T06:50:56.889Z,13.57
2022-10-22T06:51:56.877Z,13.57
2022-10-22T06:52:56.858Z,13.60
2022-10-22T06:53:56.997Z,13.58
2022-10-22T06:54:56.836Z,13.61
2022-10-22T06:55:56.821Z,13.62
2022-10-22T06:56:56.812Z,13.62
2022-10-22T06:57:56.788Z,13.71
2022-10-22T06:58:56.819Z,13.89
2022-10-22T06:59:56.768Z,14.07
2022-10-22T07:00:56.781Z,14.20
2022-10-22T07:01:56.743Z,14.36
2022-10-22T07:02:59.166Z,14.41
2022-10-22T07:03:56.728Z,14.45
2022-10-22T07:04:56.699Z,14.45
2022-10-22T07:05:56.689Z,14.45
2022-10-22T07:06:56.670Z,14.45
2022-10-22T07:07:56.680Z,14.45
2022-10-22T07:08:56.797Z,14.41
2022-10-22T07:09:56.622Z,14.38
2022-10-22T07:10:56.619Z,14.37
2022-10-22T07:11:56.610Z,14.38
2022-10-22T07:12:56.591Z,14.34
2022-10-22T07:13:56.588Z,14.33
2022-10-22T07:14:56.577Z,14.31
2022-10-22T07:15:56.554Z,14.30
2022-10-22T07:16:56.540Z,14.28
2022-10-22T07:17:56.530Z,14.25
2022-10-22T07:18:56.530Z,14.20
2022-10-22T07:19:56.501Z,14.20
2022-10-22T07:20:56.503Z,14.18
2022-10-22T07:21:56.471Z,14.18
2022-10-22T07:22:56.469Z,14.16
2022-10-22T07:23:56.731Z,14.15
2022-10-22T07:24:56.456Z,14.16
2022-10-22T07:26:56.457Z,14.13
2022-10-22T07:27:56.373Z,14.13
2022-10-22T07:28:56.381Z,14.12
2022-10-22T07:29:56.381Z,14.13
2022-10-22T07:30:56.380Z,14.13
2022-10-22T07:31:56.466Z,14.12
2022-10-22T07:32:56.333Z,14.12
2022-10-22T07:33:56.311Z,14.13
2022-10-22T07:34:56.310Z,14.13
2022-10-22T07:35:56.311Z,14.15
2022-10-22T07:36:56.268Z,14.15
2022-10-22T07:37:56.280Z,14.15
2022-10-22T07:38:56.251Z,14.16
2022-10-22T07:39:59.241Z,14.18
2022-10-22T07:40:57.250Z,14.16
2022-10-22T07:41:56.204Z,14.19
2022-10-22T07:42:56.193Z,14.19
2022-10-22T07:43:56.221Z,14.19
2022-10-22T07:44:56.184Z,14.20
2022-10-22T07:45:56.151Z,14.20
2022-10-22T07:46:56.143Z,14.23
2022-10-22T07:47:56.144Z,14.26
2022-10-22T07:48:56.119Z,14.28
2022-10-22T07:49:56.144Z,14.28
2022-10-22T07:50:56.094Z,14.28
2022-10-22T07:51:56.072Z,14.30
2022-10-22T07:52:57.557Z,14.28
2022-10-22T07:53:56.070Z,14.28
2022-10-22T07:54:56.052Z,14.28
2022-10-22T07:55:56.022Z,14.30
2022-10-22T07:56:56.005Z,14.28
2022-10-22T07:57:55.984Z,14.30
2022-10-22T07:58:56.073Z,14.30
2022-10-22T07:59:56.002Z,14.30
2022-10-22T08:00:55.942Z,14.28
2022-10-22T08:01:55.954Z,14.28
2022-10-22T08:02:55.932Z,14.25
2022-10-22T08:03:55.917Z,14.26
2022-10-22T08:04:55.912Z,14.23
2022-10-22T08:05:55.897Z,14.25
2022-10-22T08:06:55.903Z,14.23
2022-10-22T08:07:55.871Z,14.23
2022-10-22T08:08:55.901Z,14.25
2022-10-22T08:09:55.857Z,14.26
2022-10-22T08:10:55.906Z,14.25
2022-10-22T08:11:55.806Z,14.28
2022-10-22T08:12:55.835Z,14.33
2022-10-22T08:13:55.775Z,14.34
2022-10-22T08:14:55.784Z,14.36
2022-10-22T08:15:57.561Z,14.38
2022-10-22T08:16:55.743Z,14.40
2022-10-22T08:17:55.723Z,14.41
2022-10-22T08:18:55.714Z,14.43
2022-10-22T08:19:55.703Z,14.45
2022-10-22T08:20:55.771Z,14.49
2022-10-22T08:21:55.663Z,14.49
2022-10-22T08:22:56.661Z,14.53
2022-10-22T08:23:55.697Z,14.61
2022-10-22T08:24:55.657Z,14.63
2022-10-22T08:25:55.652Z,14.68
2022-10-22T08:26:55.609Z,14.71
2022-10-22T08:27:55.583Z,14.74
2022-10-22T08:28:55.582Z,14.74
2022-10-22T08:29:55.574Z,14.81
2022-10-22T08:30:55.553Z,14.86
2022-10-22T08:31:55.535Z,14.87
2022-10-22T08:32:55.544Z,14.92
2022-10-22T08:33:55.507Z,14.96
2022-10-22T08:34:55.575Z,15.02
2022-10-22T08:35:55.486Z,15.08
2022-10-22T08:36:55.474Z,15.12
2022-10-22T08:37:55.455Z,15.15
2022-10-22T08:38:55.465Z,15.22
2022-10-22T08:39:55.444Z,15.27
2022-10-22T08:40:55.419Z,15.32
2022-10-22T08:41:55.416Z,15.36
2022-10-22T08:42:55.399Z,15.41
2022-10-22T08:43:55.411Z,15.45
2022-10-22T08:44:55.383Z,15.50
2022-10-22T08:45:55.350Z,15.54
2022-10-22T08:46:55.339Z,15.57
2022-10-22T08:47:55.336Z,15.62
2022-10-22T08:48:55.390Z,15.66
2022-10-22T08:49:55.309Z,15.70
2022-10-22T08:50:55.286Z,15.70
2022-10-22T08:51:55.266Z,15.66
2022-10-22T08:52:55.257Z,15.66
2022-10-22T08:53:55.250Z,15.63
2022-10-22T08:54:55.246Z,15.65
2022-10-22T08:55:55.217Z,15.62
2022-10-22T08:56:55.207Z,15.62
2022-10-22T08:57:55.231Z,15.62
2022-10-22T08:58:55.186Z,15.69
2022-10-22T08:59:55.184Z,15.72
2022-10-22T09:00:55.149Z,15.72
2022-10-22T09:01:55.137Z,15.78
2022-10-22T09:02:55.138Z,15.85
2022-10-22T09:03:55.168Z,15.91
2022-10-22T09:04:55.136Z,15.96
2022-10-22T09:05:55.142Z,16.00
2022-10-22T09:06:55.078Z,16.06
2022-10-22T09:07:55.074Z,16.08
2022-10-22T09:08:55.076Z,16.10
2022-10-22T09:09:55.049Z,16.10
2022-10-22T09:10:55.035Z,16.12
2022-10-22T09:11:55.020Z,16.12
2022-10-22T09:12:54.988Z,16.10
2022-10-22T09:13:54.979Z,16.08
2022-10-22T09:14:54.979Z,16.08
2022-10-22T09:15:54.973Z,16.08
2022-10-22T09:16:54.946Z,16.12
2022-10-22T09:17:54.929Z,16.16
2022-10-22T09:18:54.900Z,16.13
2022-10-22T09:19:54.910Z,16.16
2022-10-22T09:20:54.879Z,16.13
2022-10-22T09:21:54.880Z,16.13
2022-10-22T09:22:54.866Z,16.13
2022-10-22T09:23:54.849Z,16.09
2022-10-22T09:24:54.886Z,16.10
2022-10-22T09:25:54.821Z,16.16
2022-10-22T09:26:54.808Z,16.16
2022-10-22T09:27:54.789Z,16.16
2022-10-22T09:28:54.781Z,16.18
2022-10-22T09:29:54.910Z,16.25
2022-10-22T09:30:54.771Z,16.28
2022-10-22T09:31:54.740Z,16.29
2022-10-22T09:32:54.719Z,16.31
2022-10-22T09:33:54.719Z,16.32
2022-10-22T09:34:54.718Z,16.32
2022-10-22T09:35:54.690Z,16.32
2022-10-22T09:36:54.668Z,16.31
2022-10-22T09:37:54.659Z,16.29
2022-10-22T09:38:54.649Z,16.28
2022-10-22T09:39:54.663Z,16.26
2022-10-22T09:40:54.610Z,16.26
2022-10-22T09:41:54.612Z,16.26
2022-10-22T09:42:54.589Z,16.28
2022-10-22T09:43:54.582Z,16.26
2022-10-22T09:44:54.590Z,16.28
2022-10-22T09:45:54.541Z,16.29
2022-10-22T09:46:54.548Z,16.34
2022-10-22T09:48:01.782Z,16.36
2022-10-22T09:48:55.560Z,16.34
2022-10-22T09:49:54.516Z,16.34
2022-10-22T09:50:54.500Z,16.31
2022-10-22T09:51:54.480Z,16.29
2022-10-22T09:52:54.471Z,16.29
2022-10-22T09:53:54.451Z,16.28
2022-10-22T09:54:54.451Z,16.29
2022-10-22T09:56:54.411Z,16.26
2022-10-22T09:57:54.401Z,16.28
2022-10-22T09:58:54.399Z,16.31
2022-10-22T09:59:54.360Z,16.40
2022-10-22T10:00:54.371Z,16.49
2022-10-22T10:01:54.368Z,16.59
2022-10-22T10:02:54.366Z,16.69
2022-10-22T10:03:55.541Z,16.79
2022-10-22T10:04:55.430Z,16.86
2022-10-22T10:06:03.046Z,16.98
2022-10-22T10:06:55.291Z,17.05
2022-10-22T10:07:54.262Z,17.14
2022-10-22T10:08:54.298Z,17.20
2022-10-22T10:09:54.272Z,17.28
2022-10-22T10:10:54.222Z,17.31
2022-10-22T10:11:54.233Z,17.28
2022-10-22T10:12:54.183Z,17.32
2022-10-22T10:13:54.182Z,17.37
2022-10-22T10:14:54.156Z,17.42
2022-10-22T10:15:54.173Z,17.49
2022-10-22T10:16:54.132Z,17.52
2022-10-22T10:17:54.131Z,17.47
2022-10-22T10:18:54.103Z,17.42
2022-10-22T10:19:54.094Z,17.41
2022-10-22T10:20:54.094Z,17.38
2022-10-22T10:21:54.074Z,17.37
2022-10-22T10:22:54.068Z,17.38
2022-10-22T10:23:54.045Z,17.34
2022-10-22T10:24:54.055Z,17.28
2022-10-22T10:25:54.045Z,17.27
2022-10-22T10:26:54.011Z,17.27
2022-10-22T10:27:53.993Z,17.20
2022-10-22T10:28:53.974Z,17.22
2022-10-22T10:29:53.965Z,17.22
2022-10-22T10:30:53.975Z,17.20
2022-10-22T10:31:53.963Z,17.19
2022-10-22T10:32:53.925Z,17.17
2022-10-22T10:33:53.923Z,17.16
2022-10-22T10:34:53.895Z,17.14
2022-10-22T10:35:53.893Z,17.13
2022-10-22T10:36:53.888Z,17.13
2022-10-22T10:37:53.873Z,17.14
2022-10-22T10:38:53.858Z,17.14
2022-10-22T10:39:53.844Z,17.13
2022-10-22T10:40:53.824Z,17.13
2022-10-22T10:41:53.826Z,17.12
2022-10-22T10:42:53.797Z,17.12
2022-10-22T10:43:53.786Z,17.14
2022-10-22T10:44:53.774Z,17.13
2022-10-22T10:45:55.712Z,17.14
2022-10-22T10:46:53.776Z,17.13
2022-10-22T10:47:53.736Z,17.12
2022-10-22T10:48:53.716Z,17.12
2022-10-22T10:49:53.715Z,17.09
2022-10-22T10:50:53.687Z,17.05
2022-10-22T10:51:53.699Z,17.05
2022-10-22T10:52:53.669Z,17.09
2022-10-22T10:53:53.656Z,17.07
2022-10-22T10:54:53.647Z,17.10
2022-10-22T10:55:53.630Z,17.10
2022-10-22T10:56:53.631Z,17.10
2022-10-22T10:57:53.606Z,17.13
2022-10-22T10:58:53.586Z,17.13
2022-10-22T10:59:53.576Z,17.13
2022-10-22T11:00:53.559Z,17.14
2022-10-22T11:01:53.636Z,17.19
2022-10-22T11:02:53.586Z,17.20
2022-10-22T11:03:53.529Z,17.23
2022-10-22T11:04:53.517Z,17.24
2022-10-22T11:05:53.497Z,17.30
2022-10-22T11:06:58.638Z,17.30
2022-10-22T11:07:56.118Z,17.38
2022-10-22T11:08:53.470Z,17.42
2022-10-22T11:09:53.440Z,17.46
2022-10-22T11:10:53.421Z,17.52
2022-10-22T11:11:53.443Z,17.53
2022-10-22T11:12:53.400Z,17.53
2022-10-22T11:13:53.375Z,17.57
2022-10-22T11:14:53.361Z,17.57
2022-10-22T11:15:53.362Z,17.57
2022-10-22T11:16:53.353Z,17.57
2022-10-22T11:17:53.340Z,17.56
2022-10-22T11:18:53.319Z,17.56
2022-10-22T11:19:56.637Z,17.57
2022-10-22T11:20:54.290Z,17.65
2022-10-22T11:21:53.301Z,17.63
2022-10-22T11:23:17.747Z,17.66
2022-10-22T11:23:54.260Z,17.69
2022-10-22T11:24:53.241Z,17.73
2022-10-22T11:25:53.231Z,17.75
2022-10-22T11:26:53.223Z,17.71
2022-10-22T11:27:53.239Z,17.71
2022-10-22T11:28:53.190Z,17.71
2022-10-22T11:29:53.191Z,17.73
2022-10-22T11:30:53.161Z,17.75
2022-10-22T11:31:53.173Z,17.73
2022-10-22T11:32:53.136Z,17.76
2022-10-22T11:33:57.315Z,17.82
2022-10-22T11:34:54.113Z,17.88
2022-10-22T11:35:53.103Z,17.91
2022-10-22T11:36:53.091Z,17.97
2022-10-22T11:37:53.072Z,18.03
2022-10-22T11:38:53.062Z,18.11
2022-10-22T11:39:53.064Z,18.19
2022-10-22T11:40:53.033Z,18.28
2022-10-22T11:41:53.036Z,18.34
2022-10-22T11:42:53.005Z,18.41
2022-10-22T11:43:52.993Z,18.49
2022-10-22T11:45:52.974Z,18.67
2022-10-22T11:46:52.953Z,18.71
2022-10-22T11:47:52.956Z,18.76
2022-10-22T11:48:52.936Z,18.83
2022-10-22T11:49:52.914Z,18.86
2022-10-22T11:50:52.940Z,18.92
2022-10-22T11:51:52.893Z,18.94
2022-10-22T11:52:52.885Z,18.97
2022-10-22T11:53:52.872Z,19.00
2022-10-22T11:54:52.854Z,19.07
2022-10-22T11:55:52.846Z,19.11
2022-10-22T11:56:52.825Z,19.09
2022-10-22T11:57:52.835Z,19.09
2022-10-22T11:58:54.802Z,19.11
2022-10-22T11:59:52.786Z,19.07
2022-10-22T12:00:52.761Z,19.01
2022-10-22T12:01:52.737Z,19.01
2022-10-22T12:02:52.745Z,19.00
2022-10-22T12:03:52.725Z,19.04
2022-10-22T12:04:52.787Z,19.01
2022-10-22T12:05:52.716Z,19.00
2022-10-22T12:06:52.677Z,19.00
2022-10-22T12:07:52.714Z,19.01
2022-10-22T12:08:52.695Z,19.04
2022-10-22T12:10:52.627Z,19.05
2022-10-22T12:11:52.648Z,19.04
2022-10-22T12:12:52.626Z,19.00
2022-10-22T12:13:52.611Z,18.94
2022-10-22T12:14:52.616Z,18.94
2022-10-22T12:15:52.578Z,18.94
2022-10-22T12:16:57.041Z,18.97
2022-10-22T12:17:53.555Z,18.96
2022-10-22T12:18:52.526Z,18.92
2022-10-22T12:19:52.520Z,18.94
2022-10-22T12:20:52.497Z,18.94
2022-10-22T12:21:52.496Z,18.96
2022-10-22T12:22:52.494Z,19.01
2022-10-22T12:23:52.489Z,19.07
2022-10-22T12:24:52.445Z,19.09
2022-10-22T12:25:52.516Z,19.11
2022-10-22T12:26:52.706Z,19.01
2022-10-22T12:27:52.430Z,18.92
2022-10-22T12:28:52.388Z,18.85
2022-10-22T12:29:52.379Z,18.82
2022-10-22T12:30:52.368Z,18.76
2022-10-22T12:31:52.366Z,18.74
2022-10-22T12:32:52.349Z,18.82
2022-10-22T12:33:52.337Z,18.76
2022-10-22T12:34:52.316Z,18.67
2022-10-22T12:35:52.309Z,18.57
2022-10-22T12:36:52.288Z,18.52
2022-10-22T12:37:52.300Z,18.45
2022-10-22T12:38:52.260Z,18.45
2022-10-22T12:39:52.250Z,18.39
2022-10-22T12:40:52.241Z,18.34
2022-10-22T12:41:52.228Z,18.33
2022-10-22T12:42:52.222Z,18.27
2022-10-22T12:43:52.200Z,18.19
2022-10-22T12:44:52.181Z,18.15
2022-10-22T12:45:52.171Z,18.12
2022-10-22T12:46:56.006Z,18.06
2022-10-22T12:47:53.161Z,18.05
2022-10-22T12:48:52.129Z,17.98
2022-10-22T12:49:52.121Z,17.95
2022-10-22T12:50:52.101Z,17.93
2022-10-22T12:51:52.091Z,17.91
2022-10-22T12:52:52.091Z,17.91
2022-10-22T12:53:52.061Z,17.90
2022-10-22T12:54:52.051Z,17.91
2022-10-22T12:55:52.032Z,17.91
2022-10-22T12:56:52.021Z,17.90
2022-10-22T12:57:52.031Z,18.03
2022-10-22T12:58:52.002Z,18.12